Terminal Aerodrome Forecast
Issued by NWS Louisville, KY

Home | Current Version | Previous Version | Text Only | Print | Product List | Glossary On
Versions: 1 2 3 4 5 6 7 8 9 10 11 12 13 14
691
FTUS43 KLMK 062320
TAFLEX
TAF
KLEX 062320Z 0700/0724 26008KT P6SM SCT250
     FM070200 19005KT P6SM SKC
     FM071500 21011G17KT P6SM SCT120=

USA.gov is the U.S. government's official web portal to all federal, state and local government web resources and services.